Salineno, Texas
Current Conditions -  °F | °C
As of 1:15 PM on Friday 24 Oct 2014 (Local Time) from KAPY Reporting Station
Clear Clear  
Wind Chill: 86°   Ceiling: Unl
Heat Index: 86°   Visibility: 10mi
Dew Point: 56°   Wind: 8mph
Humidity: 36%   Direction: 50°NE
Pressure: 30.13"   Gusts: NA
Location:  26.52°N, 99.11°W
Report Text: KAPY 241815Z AUTO 05007KT 10SM CLR 30/13 A3013 RMK AO2 T03000133
Loading
Personal Weather Stations






























Interactive Weather Map
Tropical Storm Tracking
New forecast layout! Learn more

10-Day Weather Forecast

Advertisements
Track Severe Weather on mobile